Falconia — H3QI — position and weather

sailwx.info

Track history (hours):
 
Tides and Currents Weather Stations Pressure Air Temp Water Temp Dewpoint Dewpoint Depression Visibility Wind Speed Wind Dir Waves Ship Positions

Falconia

Last reported at 2014-Sep-03 07:04 UTC. Time now 2014-Sep-22 16:21 UTC.
Position N 23°05' E 113°24'.
Warning: this ship's position is 19 days out of date.

Length 20 m; draft 4.2 m.

Type: Cargo ship. MMSI: 353620000.

Date/timePositionNaut miles runAvg speedWind from/ knotsBaromVisibWave heightAir tempDewpointWater temp
2014-Sep-03 07:04N 23°05' E 113°24'0 0.0
2014-Sep-03 06:33N 23°05' E 113°24'0 0.0
2014-Sep-03 05:33N 23°05' E 113°24'0 0.0
2014-Sep-03 04:33N 23°05' E 113°24'0 0.0
2014-Sep-03 03:33N 23°05' E 113°24'0 0.0
2014-Sep-03 02:33N 23°05' E 113°24'0 0.0
2014-Sep-03 01:32N 23°05' E 113°24'0 0.0
2014-Sep-03 00:33N 23°05' E 113°24'0 0.0
2014-Sep-02 23:33N 23°05' E 113°24'0 0.0
2014-Sep-02 22:33N 23°05' E 113°24'0 0.0
2014-Sep-02 21:33N 23°05' E 113°24'0 0.0
2014-Sep-02 20:31N 23°05' E 113°24'0 0.0
2014-Sep-02 19:33N 23°05' E 113°24'0 0.0
2014-Sep-02 18:33N 23°05' E 113°24'0 0.0
2014-Sep-02 17:33N 23°05' E 113°24'0 0.0
2014-Sep-02 16:33N 23°05' E 113°24'0 0.0
2014-Sep-02 15:33N 23°05' E 113°24'0 0.0
2014-Sep-02 14:33N 23°05' E 113°24'0 0.0
2014-Sep-02 13:33N 23°05' E 113°24'0 0.0
2014-Sep-02 12:33N 23°05' E 113°24'0 0.0
2014-Sep-02 11:33N 23°05' E 113°24'0 0.0
2014-Sep-02 10:33N 23°05' E 113°24'0 0.0
2014-Sep-02 09:33N 23°05' E 113°24'0 0.0
2014-Sep-02 08:33N 23°05' E 113°24'2 1.6
2014-Sep-02 07:33N 23°06' E 113°26'4 4.1
2014-Sep-02 06:33N 23°03' E 113°30'1 1.4
2014-Sep-02 05:33N 23°02' E 113°31'1010.6
2014-Sep-02 04:33N 22°52' E 113°34'12 9.9
2014-Sep-02 03:23N 22°43' E 113°41'910.6
2014-Sep-02 02:31N 22°34' E 113°43'1010.0
2014-Sep-02 01:33N 22°24' E 113°46'9 9.0
2014-Sep-02 00:33N 22°16' E 113°48'8 8.2
2014-Sep-01 23:33N 22°07' E 113°48'5 4.5
2014-Sep-01 22:33N 22°03' E 113°51'5 4.8
2014-Sep-01 21:31N 21°59' E 113°53'24 2.0
2014-Sep-01 09:22N 21°44' E 113°32'3 0.3
2014-Sep-01 00:18N 21°45' E 113°29'3 0.1
2014-Aug-31 06:10N 21°43' E 113°31'1 0.4
2014-Aug-31 04:21N 21°44' E 113°32'5 0.8
2014-Aug-30 21:20N 21°43' E 113°26'4 1.1
2014-Aug-30 17:33N 21°42' E 113°30'3 0.5
2014-Aug-30 11:07N 21°45' E 113°32'2 0.1
2014-Aug-29 16:04N 21°43' E 113°32'1 2.0
2014-Aug-29 15:24N 21°43' E 113°31'3 3.8
2014-Aug-29 14:31N 21°41' E 113°28'6 1.4
2014-Aug-29 10:15N 21°45' E 113°33'24 1.0
2014-Aug-28 11:33N 22°00' E 113°52'10 9.8
2014-Aug-28 10:34N 22°09' E 113°48'1111.1
2014-Aug-28 09:33N 22°20' E 113°48'1313.1
2014-Aug-28 08:34N 22°33' E 113°44'1212.0
2014-Aug-28 07:33N 22°44' E 113°39'1110.5
2014-Aug-28 06:33N 22°54' E 113°34'9 9.6
2014-Aug-28 05:34N 23°03' E 113°30'5 4.7
2014-Aug-28 04:33N 23°06' E 113°27'0 0.0
2014-Aug-28 03:34N 23°06' E 113°27'0 0.0
2014-Aug-28 02:34N 23°06' E 113°27'0 0.0
2014-Aug-28 01:34N 23°06' E 113°27'0 0.0
2014-Aug-28 00:34N 23°06' E 113°27'0 0.0
2014-Aug-27 23:33N 23°06' E 113°27'0 0.0
2014-Aug-27 22:34N 23°06' E 113°27'0 0.0
2014-Aug-27 21:34N 23°06' E 113°27'0 0.0
2014-Aug-27 20:34N 23°06' E 113°27'0 0.0
2014-Aug-27 19:34N 23°06' E 113°27'0 0.0
2014-Aug-27 18:34N 23°06' E 113°27'0 0.0
2014-Aug-27 17:33N 23°06' E 113°27'0 0.0
2014-Aug-27 16:33N 23°06' E 113°27'0 0.0
2014-Aug-27 15:34N 23°06' E 113°27'0 0.0
2014-Aug-27 14:34N 23°06' E 113°27'0 0.0
2014-Aug-27 13:33N 23°06' E 113°27'0 0.0
2014-Aug-27 12:33N 23°06' E 113°27'0 0.0
2014-Aug-27 11:33N 23°06' E 113°27'0 0.0
2014-Aug-27 10:34N 23°06' E 113°27'0 0.0
2014-Aug-27 09:33N 23°06' E 113°27'0 0.0
2014-Aug-27 08:34N 23°06' E 113°27'0 0.0
2014-Aug-27 07:33N 23°06' E 113°27'0 0.0
2014-Aug-27 06:34N 23°06' E 113°27'0 0.0
2014-Aug-27 05:34N 23°06' E 113°27'0 0.0
2014-Aug-27 04:34N 23°06' E 113°27'5 5.4
2014-Aug-27 03:34N 23°02' E 113°31'10 9.9
2014-Aug-27 02:33N 22°52' E 113°34'2311.3
2014-Aug-27 00:30N 22°31' E 113°44'1111.6
2014-Aug-26 23:33N 22°21' E 113°47'10 9.8
2014-Aug-26 22:33N 22°11' E 113°47'4 3.5
2014-Aug-26 21:30N 22°07' E 113°47'0 0.0
2014-Aug-26 20:33N 22°07' E 113°47'0 0.0
2014-Aug-26 19:32N 22°07' E 113°47'0 0.0
2014-Aug-26 18:33N 22°07' E 113°47'0 0.0
2014-Aug-26 17:27N 22°07' E 113°47'0 0.0
2014-Aug-26 16:32N 22°07' E 113°47'0 0.0
2014-Aug-26 15:32N 22°07' E 113°47'0 0.0
2014-Aug-26 14:34N 22°07' E 113°47'0 0.0
2014-Aug-26 13:33N 22°07' E 113°47'0 0.0
2014-Aug-26 12:33N 22°07' E 113°47'0 0.0
2014-Aug-26 11:33N 22°07' E 113°47'0 0.1
2014-Aug-26 10:34N 22°07' E 113°47'0 0.1
2014-Aug-26 09:34N 22°07' E 113°47'0 0.1
2014-Aug-26 08:33N 22°07' E 113°47'0 0.0
2014-Aug-26 07:34N 22°07' E 113°47'0 0.0
2014-Aug-26 06:34N 22°07' E 113°47'0 0.0
2014-Aug-26 05:34N 22°07' E 113°47'0 0.0
2014-Aug-26 04:34N 22°07' E 113°47'0 0.1
2014-Aug-26 03:34N 22°07' E 113°47'0 0.1
2014-Aug-26 02:34N 22°07' E 113°47'0 0.1
2014-Aug-26 01:34N 22°07' E 113°47'0 0.0
2014-Aug-26 00:34N 22°07' E 113°47'0 0.0
2014-Aug-25 23:34N 22°07' E 113°47'0 0.1
2014-Aug-25 22:34N 22°07' E 113°47'0 0.2
2014-Aug-25 21:34N 22°07' E 113°47'6 5.9
2014-Aug-25 20:32N 22°05' E 113°53'  
Track history (hours):
 
Tides and Currents Weather Stations Pressure Air Temp Water Temp Dewpoint Dewpoint Depression Visibility Wind Speed Wind Dir Waves Ship Positions

Falconia

Last reported at 2014-Sep-03 07:04 UTC. Time now 2014-Sep-22 16:21 UTC.
Position N 23°05' E 113°24'.
Warning: this ship's position is 19 days out of date.

Length 20 m; draft 4.2 m.

Type: Cargo ship. MMSI: 353620000.

Date/timePositionNaut miles runAvg speedWind from/ knotsBaromVisibWave heightAir tempDewpointWater temp
2014-Sep-03 07:04N 23°05' E 113°24'0 0.0
2014-Sep-03 06:33N 23°05' E 113°24'0 0.0
2014-Sep-03 05:33N 23°05' E 113°24'0 0.0
2014-Sep-03 04:33N 23°05' E 113°24'0 0.0
2014-Sep-03 03:33N 23°05' E 113°24'0 0.0
2014-Sep-03 02:33N 23°05' E 113°24'0 0.0
2014-Sep-03 01:32N 23°05' E 113°24'0 0.0
2014-Sep-03 00:33N 23°05' E 113°24'0 0.0
2014-Sep-02 23:33N 23°05' E 113°24'0 0.0
2014-Sep-02 22:33N 23°05' E 113°24'0 0.0
2014-Sep-02 21:33N 23°05' E 113°24'0 0.0
2014-Sep-02 20:31N 23°05' E 113°24'0 0.0
2014-Sep-02 19:33N 23°05' E 113°24'0 0.0
2014-Sep-02 18:33N 23°05' E 113°24'0 0.0
2014-Sep-02 17:33N 23°05' E 113°24'0 0.0
2014-Sep-02 16:33N 23°05' E 113°24'0 0.0
2014-Sep-02 15:33N 23°05' E 113°24'0 0.0
2014-Sep-02 14:33N 23°05' E 113°24'0 0.0
2014-Sep-02 13:33N 23°05' E 113°24'0 0.0
2014-Sep-02 12:33N 23°05' E 113°24'0 0.0
2014-Sep-02 11:33N 23°05' E 113°24'0 0.0
2014-Sep-02 10:33N 23°05' E 113°24'0 0.0
2014-Sep-02 09:33N 23°05' E 113°24'0 0.0
2014-Sep-02 08:33N 23°05' E 113°24'2 1.6
2014-Sep-02 07:33N 23°06' E 113°26'4 4.1
2014-Sep-02 06:33N 23°03' E 113°30'1 1.4
2014-Sep-02 05:33N 23°02' E 113°31'1010.6
2014-Sep-02 04:33N 22°52' E 113°34'12 9.9
2014-Sep-02 03:23N 22°43' E 113°41'910.6
2014-Sep-02 02:31N 22°34' E 113°43'1010.0
2014-Sep-02 01:33N 22°24' E 113°46'9 9.0
2014-Sep-02 00:33N 22°16' E 113°48'8 8.2
2014-Sep-01 23:33N 22°07' E 113°48'5 4.5
2014-Sep-01 22:33N 22°03' E 113°51'5 4.8
2014-Sep-01 21:31N 21°59' E 113°53'24 2.0
2014-Sep-01 09:22N 21°44' E 113°32'3 0.3
2014-Sep-01 00:18N 21°45' E 113°29'3 0.1
2014-Aug-31 06:10N 21°43' E 113°31'1 0.4
2014-Aug-31 04:21N 21°44' E 113°32'5 0.8
2014-Aug-30 21:20N 21°43' E 113°26'4 1.1
2014-Aug-30 17:33N 21°42' E 113°30'3 0.5
2014-Aug-30 11:07N 21°45' E 113°32'2 0.1
2014-Aug-29 16:04N 21°43' E 113°32'1 2.0
2014-Aug-29 15:24N 21°43' E 113°31'3 3.8
2014-Aug-29 14:31N 21°41' E 113°28'6 1.4
2014-Aug-29 10:15N 21°45' E 113°33'24 1.0
2014-Aug-28 11:33N 22°00' E 113°52'10 9.8
2014-Aug-28 10:34N 22°09' E 113°48'1111.1
2014-Aug-28 09:33N 22°20' E 113°48'1313.1
2014-Aug-28 08:34N 22°33' E 113°44'1212.0
2014-Aug-28 07:33N 22°44' E 113°39'1110.5
2014-Aug-28 06:33N 22°54' E 113°34'9 9.6
2014-Aug-28 05:34N 23°03' E 113°30'5 4.7
2014-Aug-28 04:33N 23°06' E 113°27'0 0.0
2014-Aug-28 03:34N 23°06' E 113°27'0 0.0
2014-Aug-28 02:34N 23°06' E 113°27'0 0.0
2014-Aug-28 01:34N 23°06' E 113°27'0 0.0
2014-Aug-28 00:34N 23°06' E 113°27'0 0.0
2014-Aug-27 23:33N 23°06' E 113°27'0 0.0
2014-Aug-27 22:34N 23°06' E 113°27'0 0.0
2014-Aug-27 21:34N 23°06' E 113°27'0 0.0
2014-Aug-27 20:34N 23°06' E 113°27'0 0.0
2014-Aug-27 19:34N 23°06' E 113°27'0 0.0
2014-Aug-27 18:34N 23°06' E 113°27'0 0.0
2014-Aug-27 17:33N 23°06' E 113°27'0 0.0
2014-Aug-27 16:33N 23°06' E 113°27'0 0.0
2014-Aug-27 15:34N 23°06' E 113°27'0 0.0
2014-Aug-27 14:34N 23°06' E 113°27'0 0.0
2014-Aug-27 13:33N 23°06' E 113°27'0 0.0
2014-Aug-27 12:33N 23°06' E 113°27'0 0.0
2014-Aug-27 11:33N 23°06' E 113°27'0 0.0
2014-Aug-27 10:34N 23°06' E 113°27'0 0.0
2014-Aug-27 09:33N 23°06' E 113°27'0 0.0
2014-Aug-27 08:34N 23°06' E 113°27'0 0.0
2014-Aug-27 07:33N 23°06' E 113°27'0 0.0
2014-Aug-27 06:34N 23°06' E 113°27'0 0.0
2014-Aug-27 05:34N 23°06' E 113°27'0 0.0
2014-Aug-27 04:34N 23°06' E 113°27'5 5.4
2014-Aug-27 03:34N 23°02' E 113°31'10 9.9
2014-Aug-27 02:33N 22°52' E 113°34'2311.3
2014-Aug-27 00:30N 22°31' E 113°44'1111.6
2014-Aug-26 23:33N 22°21' E 113°47'10 9.8
2014-Aug-26 22:33N 22°11' E 113°47'4 3.5
2014-Aug-26 21:30N 22°07' E 113°47'0 0.0
2014-Aug-26 20:33N 22°07' E 113°47'0 0.0
2014-Aug-26 19:32N 22°07' E 113°47'0 0.0
2014-Aug-26 18:33N 22°07' E 113°47'0 0.0
2014-Aug-26 17:27N 22°07' E 113°47'0 0.0
2014-Aug-26 16:32N 22°07' E 113°47'0 0.0
2014-Aug-26 15:32N 22°07' E 113°47'0 0.0
2014-Aug-26 14:34N 22°07' E 113°47'0 0.0
2014-Aug-26 13:33N 22°07' E 113°47'0 0.0
2014-Aug-26 12:33N 22°07' E 113°47'0 0.0
2014-Aug-26 11:33N 22°07' E 113°47'0 0.1
2014-Aug-26 10:34N 22°07' E 113°47'0 0.1
2014-Aug-26 09:34N 22°07' E 113°47'0 0.1
2014-Aug-26 08:33N 22°07' E 113°47'0 0.0
2014-Aug-26 07:34N 22°07' E 113°47'0 0.0
2014-Aug-26 06:34N 22°07' E 113°47'0 0.0
2014-Aug-26 05:34N 22°07' E 113°47'0 0.0
2014-Aug-26 04:34N 22°07' E 113°47'0 0.1
2014-Aug-26 03:34N 22°07' E 113°47'0 0.1
2014-Aug-26 02:34N 22°07' E 113°47'0 0.1
2014-Aug-26 01:34N 22°07' E 113°47'0 0.0
2014-Aug-26 00:34N 22°07' E 113°47'0 0.0
2014-Aug-25 23:34N 22°07' E 113°47'0 0.1
2014-Aug-25 22:34N 22°07' E 113°47'0 0.2
2014-Aug-25 21:34N 22°07' E 113°47'6 5.9
2014-Aug-25 20:32N 22°05' E 113°53'  

Dump ship's entire track history